CheckWX is a tool to help pilots better visualize weather data.  It is not intended as a substitute for an official pre-flight weather briefing.

08:16:48 UTC

KTPH METAR
Tonopah Airport
Tonopah, Nevada, USA
Current

21 mins ago

KTPH 140756Z AUTO 36007KT 10SM CLR 05/M12 A3016 RMK AO2 SLP182 T00501122 401941006
Observed
Nov-14 @ 07:56 UTC
Wind
  • 360° at 7 KTS
Visibility
10 SM
Flight Rules
VFR
Cloud Levels
  • Clear skies
Temperature
C / 41°F
Dewpoint
-12°C / 10°F
Humidity
28%
Altimeter
30.16" Hg
Pressure
1021.32 hPa
Previous

1 hour ago

KTPH 140656Z AUTO 01013KT 10SM CLR 05/M13 A3016 RMK AO2 SLP186 T00501128
Observed
Nov-14 @ 06:56 UTC
Wind
  • 010° at 13 KTS
Visibility
10 SM
Flight Rules
VFR
Cloud Levels
  • Clear skies
Temperature
C / 41°F
Dewpoint
-13°C / 9°F
Humidity
26%
Altimeter
30.16" Hg
Pressure
1021.32 hPa
Previous

2 hours ago

KTPH 140556Z AUTO 01011KT 10SM CLR 06/M12 A3015 RMK AO2 SLP192 T00561117 10172 20056 53008
Observed
Nov-14 @ 05:56 UTC
Wind
  • 010° at 11 KTS
Visibility
10 SM
Flight Rules
VFR
Cloud Levels
  • Clear skies
Temperature
C / 43°F
Dewpoint
-12°C / 10°F
Humidity
26%
Altimeter
30.15" Hg
Pressure
1021.02 hPa